ADDS METAR Data INFO
IDs: Format: Raw Decoded Include TAF

Data at: 0857 UTC 19 Jun 2018

KSAN 190851Z 29007KT 10SM OVC021 18/14 A2999 RMK AO2 SLP154 T01830139 58008 $
KSAN 190751Z 31006KT 10SM OVC019 18/14 A2999 RMK AO2 SLP156 T01830139 402220178 $
KSAN 190651Z 31007KT 10SM OVC020 18/14 A3001 RMK AO2 SLP160 T01830139 $
KSAN 190551Z 32006KT 10SM BKN021 18/14 A3001 RMK AO2 SLP162 T01830139 10211 20183 50005 $
KSAN 190451Z 30007KT 10SM BKN018 19/14 A3002 RMK AO2 SLP165 T01890139 $
KSAN 190439Z 31007KT 10SM BKN018 18/14 A3002 RMK AO2 T01830139 $
KSAN 190351Z 32008KT 10SM SCT018 18/14 A3001 RMK AO2 SLP161 T01830139 $
KSAN 190251Z 29008KT 10SM FEW020 19/13 A3000 RMK AO2 SLP157 T01890133 56005 $
KSAN 190151Z 29011KT 10SM SCT020 20/13 A3000 RMK AO2 SLP157 T02000133 $
KSAN 190051Z 31010KT 10SM SCT022 21/13 A3000 RMK AO2 SLP158 SCT V BKN T02060133 $
KSAN 182351Z 30011KT 10SM SCT023 21/13 A3001 RMK AO2 SLP162 SCT V BKN T02060128 10222 20200 57004 $
KSAN 182251Z 29012KT 10SM SCT023 21/13 A3001 RMK AO2 SLP163 SCT V BKN T02110128 $
KSAN 182239Z 30012KT 10SM SCT023 21/13 A3001 RMK AO2 SCT V BKN T02110128 $
KSAN 182224Z 31010KT 10SM BKN023 21/13 A3001 RMK AO2 T02110128 $
KSAN 182151Z 30013G19KT 10SM SCT024 22/13 A3002 RMK AO2 SLP165 T02170133 $
KSAN 182051Z 29014KT 10SM SCT027 22/13 A3002 RMK AO2 SLP166 T02170133 58003
KSAN 181951Z 30015G21KT 10SM SCT027 22/13 A3003 RMK AO2 SLP169 T02170128
KSAN 181851Z 28015G20KT 10SM FEW034 22/12 A3003 RMK AO2 SLP168 T02170122
KSAN 181751Z 31010KT 10SM SCT034 22/12 A3003 RMK AO2 SLP169 T02170122 10217 20178 51004
KSAN 181651Z 28008KT 10SM BKN034 20/13 A3003 RMK AO2 SLP169 T02000128
KSAN 181551Z 30006KT 10SM BKN037 20/10 A3003 RMK AO2 SLP169 T02000100
KSAN 181451Z 28003KT 10SM FEW032 BKN038 19/09 A3002 RMK AO2 SLP165 T01890094 53013
KSAN 181351Z 36004KT 10SM FEW028 BKN035 18/12 A3001 RMK AO2 SLP161 T01830117
KSAN 181251Z 01003KT 10SM BKN035 18/12 A2999 RMK AO2 SLP155 T01830117
KSAN 181209Z 36003KT 10SM BKN032 18/12 A2998 RMK AO2 T01830117
KSAN 181151Z 35004KT 10SM BKN028 18/12 A2998 RMK AO2 SLP152 T01780122 10183 20178 55002
KSAN 181051Z 01003KT 10SM OVC028 18/12 A2998 RMK AO2 SLP152 T01780122
KSAN 180951Z 01004KT 10SM OVC028 18/12 A2998 RMK AO2 SLP150 T01830117
KSAN 180851Z 03004KT 10SM OVC028 18/12 A2999 RMK AO2 SLP154 T01830122 58006
KSAN 180751Z 32004KT 10SM BKN023 18/12 A3000 RMK AO2 SLP157 T01780122 402110172
KSAN 180651Z 33006KT 10SM BKN020 18/13 A3000 RMK AO2 SLP159 T01830128
KSAN 180551Z 31005KT 10SM BKN020 BKN035 18/12 A3001 RMK AO2 SLP161 T01780122 10200 20172 51007
KSAN 180509Z COR 30005KT 10SM BKN018 BKN030 18/13 A3001 RMK AO2 T01780128
KSAN 180451Z 29004KT 10SM SCT018 BKN030 18/13 A3001 RMK AO2 SLP160 T01780128
KSAN 180351Z 31004KT 10SM SCT018 BKN030 18/12 A2999 RMK AO2 SLP156 T01780122
KSAN 180251Z 27006KT 10SM SCT019 BKN032 18/13 A2999 RMK AO2 SLP154 T01830128 55001
KSAN 180151Z 25008KT 10SM FEW012 FEW022 BKN032 18/12 A2999 RMK AO2 SLP153 T01830122
KSAN 180051Z 22008KT 10SM FEW012 FEW023 BKN037 19/11 A2998 RMK AO2 SLP152 T01890111
KSAN 172351Z 23009KT 10SM FEW012 FEW023 BKN037 20/11 A2999 RMK AO2 SLP155 T02000106 10211 20183 56001
KSAN 172251Z 25009KT 10SM FEW012 FEW025 BKN038 21/10 A2999 RMK AO2 SLP155 T02060100
KSAN 172151Z 24007KT 10SM FEW025 SCT041 20/11 A2999 RMK AO2 SLP154 T02000106